createdAt,value
2022-08-25T00:00:53.210Z,8.55
2022-08-25T00:02:03.013Z,9.82
2022-08-25T00:03:04.843Z,9.20
2022-08-25T00:04:10.995Z,9.18
2022-08-25T00:05:13.047Z,9.88
2022-08-25T00:06:15.814Z,8.75
2022-08-25T00:07:18.659Z,9.25
2022-08-25T00:08:20.364Z,8.63
2022-08-25T00:09:25.446Z,9.15
2022-08-25T00:10:27.329Z,9.48
2022-08-25T00:11:32.018Z,9.00
2022-08-25T00:12:33.765Z,8.43
2022-08-25T00:13:35.356Z,8.52
2022-08-25T00:14:38.071Z,8.63
2022-08-25T00:15:39.735Z,9.18
2022-08-25T00:16:41.926Z,8.90
2022-08-25T00:17:43.533Z,9.75
2022-08-25T00:18:50.251Z,9.52
2022-08-25T00:19:51.865Z,9.02
2022-08-25T00:20:53.642Z,8.70
2022-08-25T00:21:56.382Z,8.70
2022-08-25T00:22:58.527Z,8.73
2022-08-25T00:24:02.448Z,8.45
2022-08-25T00:25:04.483Z,9.27
2022-08-25T00:26:07.196Z,9.82
2022-08-25T00:27:08.907Z,9.48
2022-08-25T00:28:10.787Z,9.05
2022-08-25T00:29:13.487Z,8.82
2022-08-25T00:30:16.823Z,8.45
2022-08-25T00:31:20.895Z,8.30
2022-08-25T00:32:24.442Z,9.88
2022-08-25T00:33:26.329Z,8.57
2022-08-25T00:34:37.891Z,8.65
2022-08-25T00:35:41.180Z,9.40
2022-08-25T00:36:43.607Z,8.80
2022-08-25T00:37:45.303Z,9.13
2022-08-25T00:38:48.170Z,9.40
2022-08-25T00:39:49.958Z,8.32
2022-08-25T00:41:05.987Z,9.25
2022-08-25T00:42:15.875Z,8.45
2022-08-25T00:43:18.865Z,8.77
2022-08-25T00:44:20.648Z,9.77
2022-08-25T00:45:23.256Z,8.60
2022-08-25T00:46:31.977Z,9.15
2022-08-25T00:47:33.681Z,9.23
2022-08-25T00:48:35.302Z,9.35
2022-08-25T00:49:41.839Z,9.25
2022-08-25T00:50:43.574Z,8.73
2022-08-25T00:51:51.331Z,9.65
2022-08-25T00:52:56.186Z,9.20
2022-08-25T00:53:58.463Z,8.50
2022-08-25T00:55:09.563Z,9.10
2022-08-25T00:56:13.134Z,9.65
2022-08-25T00:57:18.495Z,10.43
2022-08-25T00:58:27.198Z,9.77
2022-08-25T00:59:29.321Z,10.75
2022-08-25T01:00:38.233Z,9.55
2022-08-25T01:01:40.250Z,10.02
2022-08-25T01:02:41.949Z,10.35
2022-08-25T01:03:43.640Z,10.07
2022-08-25T01:04:49.227Z,10.13
2022-08-25T01:05:52.128Z,9.88
2022-08-25T01:06:55.701Z,10.10
2022-08-25T01:07:59.004Z,10.75
2022-08-25T01:09:01.758Z,10.40
2022-08-25T01:10:07.697Z,10.05
2022-08-25T01:11:11.338Z,11.00
2022-08-25T01:12:13.474Z,10.88
2022-08-25T01:13:27.730Z,11.18
2022-08-25T01:14:31.980Z,10.98
2022-08-25T01:15:34.612Z,11.00
2022-08-25T01:16:39.541Z,10.88
2022-08-25T01:17:49.882Z,9.68
2022-08-25T01:18:56.441Z,10.38
2022-08-25T01:19:58.029Z,9.82
2022-08-25T01:21:00.144Z,10.68
2022-08-25T01:22:01.915Z,11.18
2022-08-25T01:23:04.231Z,11.27
2022-08-25T01:24:06.982Z,10.40
2022-08-25T01:25:24.490Z,10.70
2022-08-25T01:26:31.051Z,10.23
2022-08-25T01:27:32.761Z,10.60
2022-08-25T01:28:35.522Z,10.10
2022-08-25T01:29:37.969Z,11.20
2022-08-25T01:30:40.134Z,10.50
2022-08-25T01:31:41.971Z,10.50
2022-08-25T01:32:43.609Z,10.13
2022-08-25T01:33:45.527Z,11.48
2022-08-25T01:34:47.340Z,10.90
2022-08-25T01:35:49.208Z,11.13
2022-08-25T01:36:51.159Z,10.95
2022-08-25T01:37:52.723Z,11.25
2022-08-25T01:38:55.212Z,11.60
2022-08-25T01:39:56.855Z,10.63
2022-08-25T01:40:58.445Z,11.98
2022-08-25T01:42:02.995Z,11.18
2022-08-25T01:43:07.722Z,10.70
2022-08-25T01:44:12.373Z,10.38
2022-08-25T01:45:18.989Z,9.82
2022-08-25T01:46:21.133Z,10.60
2022-08-25T01:47:23.991Z,11.00
2022-08-25T01:48:25.538Z,10.90
2022-08-25T01:49:27.127Z,10.43
2022-08-25T01:50:29.604Z,11.27
2022-08-25T01:51:39.021Z,10.88
2022-08-25T01:52:59.779Z,10.02
2022-08-25T01:54:01.434Z,10.38
2022-08-25T01:55:04.160Z,9.30
2022-08-25T01:56:11.609Z,9.95
2022-08-25T01:57:13.564Z,10.18
2022-08-25T01:58:15.154Z,10.82
2022-08-25T01:59:24.151Z,10.38
2022-08-25T02:00:26.068Z,10.50
2022-08-25T02:01:28.019Z,11.00
2022-08-25T02:02:29.787Z,9.93
2022-08-25T02:03:38.688Z,10.25
2022-08-25T02:04:44.391Z,10.00
2022-08-25T02:05:48.054Z,9.95
2022-08-25T02:06:50.362Z,10.15
2022-08-25T02:07:51.966Z,10.02
2022-08-25T02:08:55.391Z,10.35
2022-08-25T02:09:57.040Z,10.32
2022-08-25T02:11:00.797Z,10.05
2022-08-25T02:12:02.712Z,9.65
2022-08-25T02:13:05.860Z,9.57
2022-08-25T02:14:14.420Z,9.35
2022-08-25T02:15:15.991Z,9.98
2022-08-25T02:16:21.386Z,10.70
2022-08-25T02:17:23.001Z,9.50
2022-08-25T02:18:25.304Z,9.75
2022-08-25T02:19:27.014Z,10.02
2022-08-25T02:20:28.922Z,9.82
2022-08-25T02:21:30.631Z,9.55
2022-08-25T02:22:32.655Z,9.70
2022-08-25T02:23:34.211Z,10.10
2022-08-25T02:24:35.797Z,9.50
2022-08-25T02:25:39.912Z,9.77
2022-08-25T02:26:41.682Z,10.43
2022-08-25T02:27:43.831Z,10.45
2022-08-25T02:28:51.080Z,11.05
2022-08-25T02:29:52.759Z,9.52
2022-08-25T02:31:01.659Z,9.63
2022-08-25T02:32:03.985Z,10.63
2022-08-25T02:33:05.658Z,9.93
2022-08-25T02:34:08.774Z,10.35
2022-08-25T02:35:10.701Z,11.65
2022-08-25T02:36:12.942Z,10.43
2022-08-25T02:37:14.680Z,10.15
2022-08-25T02:38:16.287Z,10.80
2022-08-25T02:39:17.896Z,10.80
2022-08-25T02:40:21.443Z,11.18
2022-08-25T02:41:30.966Z,11.20
2022-08-25T02:42:33.701Z,11.63
2022-08-25T02:43:35.323Z,10.90
2022-08-25T02:44:36.884Z,11.95
2022-08-25T02:45:38.518Z,11.98
2022-08-25T02:46:40.170Z,11.57
2022-08-25T02:47:41.895Z,11.45
2022-08-25T02:48:43.552Z,11.52
2022-08-25T02:49:45.181Z,12.02
2022-08-25T02:50:48.608Z,12.25
2022-08-25T02:51:50.197Z,11.65
2022-08-25T02:52:52.502Z,11.45
2022-08-25T02:53:54.139Z,11.15
2022-08-25T02:54:55.732Z,11.52
2022-08-25T02:55:57.493Z,12.10
2022-08-25T02:56:59.620Z,11.43
2022-08-25T02:58:01.375Z,10.45
2022-08-25T02:59:03.445Z,11.23
2022-08-25T03:00:06.221Z,10.85
2022-08-25T03:01:12.009Z,11.23
2022-08-25T03:02:14.858Z,10.98
2022-08-25T03:03:16.623Z,9.85
2022-08-25T03:04:18.608Z,10.77
2022-08-25T03:05:20.324Z,10.15
2022-08-25T03:06:24.142Z,11.40
2022-08-25T03:07:25.762Z,10.85
2022-08-25T03:08:27.907Z,11.13
2022-08-25T03:09:29.538Z,12.27
2022-08-25T03:10:36.155Z,11.70
2022-08-25T03:11:40.995Z,12.25
2022-08-25T03:12:42.857Z,12.18
2022-08-25T03:13:44.556Z,11.73
2022-08-25T03:14:46.133Z,12.40
2022-08-25T03:15:49.296Z,11.52
2022-08-25T03:16:51.332Z,11.75
2022-08-25T03:17:54.037Z,11.15
2022-08-25T03:18:56.556Z,11.10
2022-08-25T03:19:59.139Z,11.85
2022-08-25T03:21:00.809Z,11.50
2022-08-25T03:22:02.458Z,11.90
2022-08-25T03:23:05.346Z,11.48
2022-08-25T03:24:07.414Z,11.27
2022-08-25T03:25:28.599Z,11.38
2022-08-25T03:26:49.112Z,11.20
2022-08-25T03:27:51.650Z,11.30
2022-08-25T03:28:55.500Z,11.73
2022-08-25T03:29:57.094Z,12.57
2022-08-25T03:31:00.535Z,13.43
2022-08-25T03:32:02.307Z,12.30
2022-08-25T03:33:04.262Z,12.57
2022-08-25T03:34:06.001Z,11.93
2022-08-25T03:35:08.162Z,12.02
2022-08-25T03:36:12.243Z,12.32
2022-08-25T03:37:13.967Z,12.45
2022-08-25T03:38:16.894Z,12.75
2022-08-25T03:39:20.660Z,11.55
2022-08-25T03:40:23.211Z,11.93
2022-08-25T03:41:29.264Z,12.52
2022-08-25T03:42:32.303Z,11.98
2022-08-25T03:43:34.559Z,11.68
2022-08-25T03:44:36.749Z,11.68
2022-08-25T03:45:43.324Z,11.52
2022-08-25T03:46:48.638Z,12.05
2022-08-25T03:47:51.728Z,11.27
2022-08-25T03:48:53.855Z,11.68
2022-08-25T03:49:56.317Z,11.77
2022-08-25T03:50:57.981Z,11.98
2022-08-25T03:51:59.626Z,10.73
2022-08-25T03:53:01.720Z,11.98
2022-08-25T03:54:04.490Z,11.48
2022-08-25T03:55:08.544Z,10.80
2022-08-25T03:56:10.642Z,12.13
2022-08-25T03:57:12.666Z,11.57
2022-08-25T03:58:14.793Z,10.57
2022-08-25T03:59:16.684Z,11.18
2022-08-25T04:00:19.921Z,11.18
2022-08-25T04:01:22.021Z,10.85
2022-08-25T04:02:23.762Z,11.65
2022-08-25T04:03:25.340Z,10.75
2022-08-25T04:04:27.035Z,10.05
2022-08-25T04:05:28.641Z,10.65
2022-08-25T04:06:30.532Z,10.50
2022-08-25T04:07:32.303Z,10.40
2022-08-25T04:08:34.382Z,11.32
2022-08-25T04:09:36.982Z,10.85
2022-08-25T04:10:38.830Z,9.88
2022-08-25T04:11:41.050Z,9.68
2022-08-25T04:12:44.446Z,10.00
2022-08-25T04:13:47.354Z,11.00
2022-08-25T04:14:49.035Z,10.60
2022-08-25T04:15:50.638Z,10.48
2022-08-25T04:16:53.054Z,10.38
2022-08-25T04:17:54.907Z,10.82
2022-08-25T04:18:57.764Z,11.18
2022-08-25T04:19:59.762Z,11.25
2022-08-25T04:21:03.504Z,11.30
2022-08-25T04:22:05.093Z,11.13
2022-08-25T04:23:06.724Z,10.00
2022-08-25T04:24:11.314Z,10.32
2022-08-25T04:25:13.578Z,10.88
2022-08-25T04:26:21.174Z,11.32
2022-08-25T04:27:22.736Z,12.25
2022-08-25T04:28:24.384Z,12.63
2022-08-25T04:29:26.534Z,13.52
2022-08-25T04:30:28.204Z,12.45
2022-08-25T04:31:31.349Z,13.18
2022-08-25T04:32:33.308Z,14.13
2022-08-25T04:33:36.076Z,14.50
2022-08-25T04:34:37.653Z,13.35
2022-08-25T04:35:41.177Z,13.98
2022-08-25T04:36:42.825Z,13.95
2022-08-25T04:37:45.089Z,14.15
2022-08-25T04:38:48.402Z,13.68
2022-08-25T04:39:49.972Z,13.48
2022-08-25T04:41:03.405Z,12.82
2022-08-25T04:42:05.380Z,12.77
2022-08-25T04:43:07.241Z,12.70
2022-08-25T04:44:08.876Z,13.00
2022-08-25T04:45:11.166Z,12.35
2022-08-25T04:46:23.217Z,12.93
2022-08-25T04:47:26.072Z,12.35
2022-08-25T04:48:29.714Z,12.63
2022-08-25T04:49:32.072Z,11.75
2022-08-25T04:50:33.695Z,12.10
2022-08-25T04:51:39.675Z,12.45
2022-08-25T04:52:41.296Z,12.32
2022-08-25T04:53:43.751Z,12.20
2022-08-25T04:54:45.340Z,12.75
2022-08-25T04:55:48.560Z,12.93
2022-08-25T04:56:54.275Z,13.02
2022-08-25T04:57:59.721Z,11.75
2022-08-25T04:59:07.729Z,12.52
2022-08-25T05:00:10.000Z,11.65
2022-08-25T05:01:15.825Z,12.13
2022-08-25T05:02:17.666Z,12.32
2022-08-25T05:03:19.280Z,12.45
2022-08-25T05:04:28.067Z,12.45
2022-08-25T05:05:31.960Z,11.88
2022-08-25T05:06:35.991Z,12.35
2022-08-25T05:07:37.587Z,11.57
2022-08-25T05:08:39.774Z,13.18
2022-08-25T05:09:41.467Z,12.75
2022-08-25T05:10:43.207Z,13.88
2022-08-25T05:11:45.609Z,13.90
2022-08-25T05:12:48.604Z,13.63
2022-08-25T05:13:52.389Z,13.73
2022-08-25T05:14:54.668Z,13.65
2022-08-25T05:16:00.194Z,13.75
2022-08-25T05:17:02.485Z,13.60
2022-08-25T05:18:04.329Z,13.00
2022-08-25T05:19:06.496Z,12.77
2022-08-25T05:20:08.694Z,11.40
2022-08-25T05:21:13.262Z,12.55
2022-08-25T05:22:14.842Z,12.35
2022-08-25T05:23:16.958Z,11.82
2022-08-25T05:24:18.874Z,12.18
2022-08-25T05:25:20.517Z,12.38
2022-08-25T05:26:22.808Z,12.10
2022-08-25T05:27:24.365Z,11.50
2022-08-25T05:28:25.959Z,12.30
2022-08-25T05:29:27.539Z,12.05
2022-08-25T05:30:29.333Z,12.38
2022-08-25T05:31:32.441Z,12.30
2022-08-25T05:32:34.079Z,11.63
2022-08-25T05:33:37.421Z,12.30
2022-08-25T05:34:39.008Z,11.85
2022-08-25T05:35:40.635Z,12.30
2022-08-25T05:36:43.578Z,12.00
2022-08-25T05:37:45.331Z,12.43
2022-08-25T05:38:47.564Z,12.60
2022-08-25T05:39:49.249Z,12.75
2022-08-25T05:41:03.513Z,13.15
2022-08-25T05:42:05.423Z,12.10
2022-08-25T05:43:07.051Z,12.25
2022-08-25T05:44:08.708Z,11.80
2022-08-25T05:45:15.817Z,12.57
2022-08-25T05:46:22.380Z,12.68
2022-08-25T05:47:24.168Z,12.80
2022-08-25T05:48:26.824Z,12.93
2022-08-25T05:49:28.540Z,12.10
2022-08-25T05:50:30.138Z,12.27
2022-08-25T05:51:31.719Z,12.25
2022-08-25T05:52:33.516Z,12.90
2022-08-25T05:53:35.643Z,12.93
2022-08-25T05:54:37.196Z,12.63
2022-08-25T05:55:38.755Z,13.00
2022-08-25T05:56:40.506Z,13.07
2022-08-25T05:57:42.559Z,12.63
2022-08-25T05:58:44.557Z,13.63
2022-08-25T05:59:46.210Z,13.23
2022-08-25T06:00:47.914Z,14.00
2022-08-25T06:02:08.173Z,14.50
2022-08-25T06:03:09.832Z,13.48
2022-08-25T06:04:11.494Z,14.05
2022-08-25T06:05:20.067Z,13.38
2022-08-25T06:06:24.327Z,13.05
2022-08-25T06:07:26.088Z,13.43
2022-08-25T06:08:32.277Z,12.57
2022-08-25T06:09:33.878Z,12.73
2022-08-25T06:10:35.912Z,12.50
2022-08-25T06:11:39.991Z,13.07
2022-08-25T06:12:47.509Z,12.77
2022-08-25T06:13:50.039Z,14.05
2022-08-25T06:14:51.639Z,12.70
2022-08-25T06:15:58.118Z,14.35
2022-08-25T06:17:00.666Z,13.82
2022-08-25T06:18:03.481Z,13.60
2022-08-25T06:19:05.709Z,13.65
2022-08-25T06:20:09.694Z,13.32
2022-08-25T06:21:14.189Z,14.20
2022-08-25T06:22:15.765Z,13.90
2022-08-25T06:23:19.203Z,13.27
2022-08-25T06:24:20.855Z,14.18
2022-08-25T06:25:25.681Z,15.75
2022-08-25T06:26:27.296Z,15.10
2022-08-25T06:27:28.899Z,16.33
2022-08-25T06:28:30.496Z,15.63
2022-08-25T06:29:32.700Z,17.08
2022-08-25T06:30:34.343Z,15.65
2022-08-25T06:31:36.655Z,14.65
2022-08-25T06:32:40.001Z,15.38
2022-08-25T06:33:41.645Z,15.48
2022-08-25T06:34:43.244Z,16.48
2022-08-25T06:35:45.068Z,16.23
2022-08-25T06:36:48.957Z,15.60
2022-08-25T06:37:51.091Z,15.80
2022-08-25T06:38:53.513Z,14.90
2022-08-25T06:39:55.769Z,14.60
2022-08-25T06:40:57.825Z,13.93
2022-08-25T06:41:59.444Z,13.82
2022-08-25T06:43:01.104Z,13.70
2022-08-25T06:44:05.484Z,13.82
2022-08-25T06:45:08.232Z,14.13
2022-08-25T06:46:17.115Z,14.50
2022-08-25T06:47:18.947Z,13.00
2022-08-25T06:48:20.672Z,13.63
2022-08-25T06:49:22.465Z,13.20
2022-08-25T06:50:24.222Z,12.43
2022-08-25T06:51:26.644Z,13.48
2022-08-25T06:52:29.438Z,13.60
2022-08-25T06:53:31.193Z,12.88
2022-08-25T06:54:33.186Z,11.15
2022-08-25T06:55:35.518Z,11.82
2022-08-25T06:56:39.393Z,11.50
2022-08-25T06:57:40.988Z,12.15
2022-08-25T06:58:42.832Z,12.32
2022-08-25T06:59:44.707Z,12.88
2022-08-25T07:00:46.383Z,12.32
2022-08-25T07:01:49.646Z,11.82
2022-08-25T07:02:51.904Z,11.45
2022-08-25T07:04:00.119Z,12.60
2022-08-25T07:05:01.722Z,12.43
2022-08-25T07:06:04.041Z,12.38
2022-08-25T07:07:05.728Z,13.02
2022-08-25T07:08:07.476Z,12.63
2022-08-25T07:09:11.385Z,13.15
2022-08-25T07:10:13.216Z,13.05
2022-08-25T07:11:17.593Z,12.48
2022-08-25T07:12:19.503Z,13.38
2022-08-25T07:13:21.347Z,14.10
2022-08-25T07:14:23.438Z,13.40
2022-08-25T07:15:25.078Z,14.07
2022-08-25T07:16:29.763Z,14.80
2022-08-25T07:17:31.931Z,14.90
2022-08-25T07:18:34.532Z,15.77
2022-08-25T07:19:36.151Z,14.88
2022-08-25T07:20:40.280Z,14.38
2022-08-25T07:21:45.798Z,14.35
2022-08-25T07:22:48.113Z,13.50
2022-08-25T07:23:49.835Z,14.05
2022-08-25T07:24:51.461Z,13.70
2022-08-25T07:25:54.239Z,13.88
2022-08-25T07:26:55.888Z,14.18
2022-08-25T07:27:59.013Z,13.82
2022-08-25T07:29:01.851Z,13.38
2022-08-25T07:30:07.553Z,13.20
2022-08-25T07:31:10.089Z,12.82
2022-08-25T07:32:12.117Z,12.75
2022-08-25T07:33:13.876Z,13.00
2022-08-25T07:34:34.730Z,12.77
2022-08-25T07:35:37.891Z,12.50
2022-08-25T07:36:39.619Z,13.05
2022-08-25T07:37:50.862Z,12.13
2022-08-25T07:38:53.495Z,12.20
2022-08-25T07:39:57.145Z,11.63
2022-08-25T07:41:05.193Z,12.35
2022-08-25T07:42:12.174Z,13.05
2022-08-25T07:43:13.880Z,13.65
2022-08-25T07:44:15.460Z,13.13
2022-08-25T07:45:20.811Z,13.25
2022-08-25T07:46:22.766Z,13.15
2022-08-25T07:47:24.443Z,13.93
2022-08-25T07:48:26.052Z,13.27
2022-08-25T07:49:35.827Z,13.32
2022-08-25T07:50:45.353Z,12.60
2022-08-25T07:52:04.033Z,13.00
2022-08-25T07:53:08.949Z,13.27
2022-08-25T07:54:10.689Z,12.00
2022-08-25T07:55:12.386Z,12.85
2022-08-25T07:56:19.653Z,13.70
2022-08-25T07:57:22.364Z,12.80
2022-08-25T07:58:24.247Z,13.52
2022-08-25T07:59:25.959Z,12.95
2022-08-25T08:00:30.278Z,13.02
2022-08-25T08:01:32.031Z,12.65
2022-08-25T08:02:35.144Z,12.80
2022-08-25T08:03:50.680Z,11.98
2022-08-25T08:04:53.823Z,13.20
2022-08-25T08:05:56.586Z,12.40
2022-08-25T08:06:58.150Z,11.93
2022-08-25T08:08:02.466Z,11.95
2022-08-25T08:09:05.072Z,13.05
2022-08-25T08:10:37.049Z,12.35
2022-08-25T08:11:34.573Z,12.32
2022-08-25T08:12:36.667Z,12.00
2022-08-25T08:13:41.436Z,11.65
2022-08-25T08:14:45.047Z,12.25
2022-08-25T08:15:47.920Z,11.45
2022-08-25T08:16:49.791Z,11.57
2022-08-25T08:17:51.554Z,11.80
2022-08-25T08:18:53.947Z,10.93
2022-08-25T08:19:55.537Z,10.85
2022-08-25T08:20:57.137Z,11.02
2022-08-25T08:22:02.164Z,10.98
2022-08-25T08:23:04.539Z,10.13
2022-08-25T08:24:14.797Z,11.27
2022-08-25T08:25:27.805Z,10.43
2022-08-25T08:26:55.239Z,11.55
2022-08-25T08:27:54.907Z,10.82
2022-08-25T08:28:56.927Z,11.35
2022-08-25T08:29:59.598Z,10.25
2022-08-25T08:31:01.439Z,10.07
2022-08-25T08:32:05.522Z,10.18
2022-08-25T08:33:11.414Z,10.43
2022-08-25T08:34:13.716Z,9.95
2022-08-25T08:35:18.875Z,10.20
2022-08-25T08:36:21.998Z,10.90
2022-08-25T08:37:28.134Z,10.35
2022-08-25T08:38:30.072Z,10.82
2022-08-25T08:39:31.679Z,11.07
2022-08-25T08:40:42.185Z,10.35
2022-08-25T08:42:11.123Z,10.25
2022-08-25T08:43:19.352Z,11.15
2022-08-25T08:44:43.020Z,10.77
2022-08-25T08:45:51.941Z,10.73
2022-08-25T08:47:28.307Z,10.82
2022-08-25T08:48:43.646Z,10.98
2022-08-25T08:50:06.723Z,11.20
2022-08-25T08:51:23.092Z,11.40
2022-08-25T08:52:48.807Z,11.95
2022-08-25T08:54:02.501Z,12.38
2022-08-25T08:55:12.070Z,12.02
2022-08-25T08:56:21.509Z,12.50
2022-08-25T08:57:28.391Z,12.32
2022-08-25T08:58:50.035Z,12.48
2022-08-25T09:00:00.161Z,11.35
2022-08-25T09:01:01.919Z,10.88
2022-08-25T09:02:06.180Z,11.63
2022-08-25T09:03:55.154Z,11.77
2022-08-25T09:05:07.093Z,13.23
2022-08-25T09:06:29.720Z,12.32
2022-08-25T09:07:45.412Z,12.55
2022-08-25T09:08:49.089Z,12.63
2022-08-25T09:09:52.229Z,12.57
2022-08-25T09:10:57.763Z,12.38
2022-08-25T09:12:34.142Z,12.15
2022-08-25T09:13:56.685Z,13.23
2022-08-25T09:15:19.846Z,13.25
2022-08-25T09:16:56.942Z,11.63
2022-08-25T09:18:23.409Z,12.73
2022-08-25T09:19:55.227Z,12.73
2022-08-25T09:21:13.456Z,12.27
2022-08-25T09:22:35.624Z,11.88
2022-08-25T09:24:12.008Z,12.30
2022-08-25T09:25:39.759Z,12.02
2022-08-25T09:26:49.349Z,12.55
2022-08-25T09:28:21.795Z,12.30
2022-08-25T09:29:27.919Z,11.45
2022-08-25T09:30:41.464Z,10.52
2022-08-25T09:31:43.549Z,11.43
2022-08-25T09:32:53.558Z,11.45
2022-08-25T09:33:57.683Z,11.90
2022-08-25T09:35:01.705Z,12.20
2022-08-25T09:36:06.417Z,11.75
2022-08-25T09:37:10.543Z,12.77
2022-08-25T09:38:13.755Z,12.07
2022-08-25T09:39:15.507Z,11.75
2022-08-25T09:40:17.556Z,10.75
2022-08-25T09:41:41.080Z,11.02
2022-08-25T09:42:51.262Z,11.68
2022-08-25T09:43:59.376Z,11.90
2022-08-25T09:45:01.114Z,11.30
2022-08-25T09:46:05.206Z,12.05
2022-08-25T09:47:12.572Z,11.93
2022-08-25T09:48:40.873Z,11.52
2022-08-25T09:49:47.386Z,10.85
2022-08-25T09:50:51.036Z,12.48
2022-08-25T09:51:52.748Z,11.13
2022-08-25T09:52:54.441Z,12.30
2022-08-25T09:53:58.374Z,12.45
2022-08-25T09:55:27.386Z,11.75
2022-08-25T09:56:32.377Z,11.35
2022-08-25T09:57:44.205Z,11.23
2022-08-25T09:58:45.790Z,11.95
2022-08-25T09:59:55.717Z,11.50
2022-08-25T10:01:18.786Z,11.57
2022-08-25T10:02:29.499Z,11.13
2022-08-25T10:03:32.297Z,11.75
2022-08-25T10:04:40.587Z,12.20
2022-08-25T10:06:00.930Z,11.75
2022-08-25T10:07:20.574Z,11.27
2022-08-25T10:08:31.401Z,11.00
2022-08-25T10:09:43.067Z,11.23
2022-08-25T10:10:53.192Z,9.98
2022-08-25T10:11:57.612Z,11.40
2022-08-25T10:13:01.771Z,10.98
2022-08-25T10:14:06.997Z,11.27
2022-08-25T10:15:37.534Z,9.93
2022-08-25T10:16:39.260Z,9.75
2022-08-25T10:17:40.885Z,10.80
2022-08-25T10:18:42.493Z,10.30
2022-08-25T10:19:44.625Z,10.48
2022-08-25T10:21:08.960Z,10.32
2022-08-25T10:22:23.424Z,10.65
2022-08-25T10:23:27.576Z,10.23
2022-08-25T10:24:33.329Z,10.88
2022-08-25T10:25:43.619Z,10.68
2022-08-25T10:27:18.458Z,10.70
2022-08-25T10:28:26.349Z,10.13
2022-08-25T10:29:30.461Z,9.50
2022-08-25T10:31:02.039Z,9.15
2022-08-25T10:32:11.484Z,10.05
2022-08-25T10:33:24.859Z,10.63
2022-08-25T10:34:35.677Z,9.75
2022-08-25T10:35:46.409Z,9.63
2022-08-25T10:37:01.194Z,9.90
2022-08-25T10:38:22.321Z,9.23
2022-08-25T10:39:41.794Z,9.15
2022-08-25T10:40:51.289Z,9.45
2022-08-25T10:42:25.749Z,10.57
2022-08-25T10:43:40.918Z,8.18
2022-08-25T10:45:22.230Z,6.85
2022-08-25T10:46:52.926Z,7.85
2022-08-25T10:48:08.173Z,8.13
2022-08-25T10:49:26.814Z,7.70
2022-08-25T10:50:37.510Z,6.63
2022-08-25T10:52:03.643Z,6.68
2022-08-25T10:53:24.135Z,7.25
2022-08-25T10:54:44.415Z,6.00
2022-08-25T10:56:07.306Z,6.05
2022-08-25T10:57:39.642Z,6.18
2022-08-25T10:58:59.798Z,5.65
2022-08-25T11:00:10.017Z,5.88
2022-08-25T11:01:19.179Z,6.38
2022-08-25T11:02:54.620Z,6.68
2022-08-25T11:04:02.875Z,6.63
2022-08-25T11:05:12.987Z,5.88
2022-08-25T11:06:24.975Z,6.03
2022-08-25T11:07:44.996Z,6.00
2022-08-25T11:08:53.215Z,6.40
2022-08-25T11:10:03.152Z,5.15
2022-08-25T11:11:29.897Z,6.22
2022-08-25T11:12:35.764Z,5.82
2022-08-25T11:13:37.443Z,5.82
2022-08-25T11:14:49.471Z,6.28
2022-08-25T11:16:16.145Z,5.70
2022-08-25T11:17:30.250Z,5.78
2022-08-25T11:18:33.015Z,5.10
2022-08-25T11:20:00.900Z,6.32
2022-08-25T11:21:45.663Z,5.00
2022-08-25T11:22:59.313Z,5.72
2022-08-25T11:24:10.714Z,5.45
2022-08-25T11:25:25.562Z,6.57
2022-08-25T11:26:36.808Z,5.70
2022-08-25T11:27:38.825Z,5.65
2022-08-25T11:28:54.215Z,5.53
2022-08-25T11:30:11.540Z,4.97
2022-08-25T11:31:15.407Z,4.80
2022-08-25T11:32:20.940Z,5.65
2022-08-25T11:33:24.614Z,4.75
2022-08-25T11:34:31.075Z,5.47
2022-08-25T11:35:49.026Z,6.13
2022-08-25T11:37:11.160Z,5.13
2022-08-25T11:38:32.456Z,5.65
2022-08-25T11:40:04.052Z,5.43
2022-08-25T11:41:28.550Z,5.78
2022-08-25T11:42:51.900Z,4.82
2022-08-25T11:44:05.573Z,5.55
2022-08-25T11:45:16.493Z,4.70
2022-08-25T11:46:30.320Z,5.45
2022-08-25T11:47:39.935Z,5.85
2022-08-25T11:48:54.480Z,4.93
2022-08-25T11:50:09.298Z,6.43
2022-08-25T11:51:27.508Z,5.13
2022-08-25T11:52:38.106Z,5.35
2022-08-25T11:53:44.077Z,5.20
2022-08-25T11:54:48.407Z,5.15
2022-08-25T11:55:54.129Z,5.32
2022-08-25T11:57:18.056Z,5.38
2022-08-25T11:58:40.622Z,5.03
2022-08-25T11:59:51.799Z,4.65
2022-08-25T12:00:54.340Z,5.55
2022-08-25T12:01:55.887Z,5.32
2022-08-25T12:03:01.400Z,5.80
2022-08-25T12:04:34.121Z,5.22
2022-08-25T12:05:52.779Z,4.85
2022-08-25T12:07:07.017Z,4.85
2022-08-25T12:08:27.665Z,4.82
2022-08-25T12:09:29.326Z,4.90
2022-08-25T12:10:51.825Z,5.03
2022-08-25T12:11:58.407Z,5.20
2022-08-25T12:13:38.022Z,4.70
2022-08-25T12:14:43.196Z,4.25
2022-08-25T12:15:47.621Z,4.55
2022-08-25T12:16:51.481Z,5.38
2022-08-25T12:18:15.188Z,5.25
2022-08-25T12:19:35.139Z,5.20
2022-08-25T12:20:57.913Z,5.63
2022-08-25T12:22:03.631Z,4.57
2022-08-25T12:23:05.547Z,5.00
2022-08-25T12:24:14.603Z,4.75
2022-08-25T12:25:33.853Z,5.10
2022-08-25T12:27:00.685Z,5.18
2022-08-25T12:28:19.484Z,5.25
2022-08-25T12:29:34.412Z,5.00
2022-08-25T12:30:51.079Z,5.22
2022-08-25T12:32:04.714Z,5.40
2022-08-25T12:33:36.515Z,5.05
2022-08-25T12:35:02.023Z,4.68
2022-08-25T12:36:11.335Z,4.78
2022-08-25T12:37:22.236Z,4.95
2022-08-25T12:38:35.037Z,4.55
2022-08-25T12:40:02.814Z,5.00
2022-08-25T12:41:10.987Z,4.80
2022-08-25T12:42:36.046Z,5.15
2022-08-25T12:43:44.804Z,4.43
2022-08-25T12:44:48.576Z,5.03
2022-08-25T12:45:53.089Z,5.15
2022-08-25T12:47:29.876Z,4.57
2022-08-25T12:48:55.963Z,5.28
2022-08-25T12:50:25.799Z,5.10
2022-08-25T12:51:55.083Z,5.10
2022-08-25T12:53:17.878Z,4.93
2022-08-25T12:54:22.546Z,4.20
2022-08-25T12:55:26.387Z,4.82
2022-08-25T12:56:47.738Z,5.70
2022-08-25T12:57:58.657Z,5.38
2022-08-25T12:59:03.701Z,5.07
2022-08-25T13:00:16.840Z,4.88
2022-08-25T13:01:35.271Z,4.55
2022-08-25T13:02:59.003Z,5.15
2022-08-25T13:04:30.440Z,5.78
2022-08-25T13:05:34.740Z,5.30
2022-08-25T13:06:48.888Z,4.25
2022-08-25T13:08:24.181Z,4.72
2022-08-25T13:09:46.096Z,5.38
2022-08-25T13:10:55.174Z,4.78
2022-08-25T13:12:07.921Z,4.78
2022-08-25T13:13:39.711Z,4.68
2022-08-25T13:14:43.889Z,4.97
2022-08-25T13:16:02.418Z,4.55
2022-08-25T13:17:04.359Z,5.35
2022-08-25T13:18:23.300Z,5.07
2022-08-25T13:19:25.718Z,4.53
2022-08-25T13:20:30.971Z,4.50
2022-08-25T13:21:38.994Z,4.75
2022-08-25T13:22:41.104Z,4.90
2022-08-25T13:23:46.619Z,5.15
2022-08-25T13:24:50.960Z,4.43
2022-08-25T13:25:54.118Z,5.38
2022-08-25T13:27:04.188Z,4.28
2022-08-25T13:28:06.633Z,4.95
2022-08-25T13:29:27.803Z,4.85
2022-08-25T13:30:33.682Z,4.88
2022-08-25T13:31:38.482Z,5.18
2022-08-25T13:32:43.727Z,5.25
2022-08-25T13:34:02.337Z,5.07
2022-08-25T13:35:11.669Z,5.00
2022-08-25T13:36:35.829Z,5.03
2022-08-25T13:37:37.986Z,4.65
2022-08-25T13:38:40.138Z,4.43
2022-08-25T13:39:56.769Z,4.80
2022-08-25T13:41:09.280Z,4.78
2022-08-25T13:42:16.975Z,4.40
2022-08-25T13:43:27.426Z,4.65
2022-08-25T13:44:32.109Z,4.78
2022-08-25T13:45:40.957Z,4.43
2022-08-25T13:46:45.422Z,5.20
2022-08-25T13:47:48.885Z,5.68
2022-08-25T13:49:06.406Z,4.88
2022-08-25T13:50:26.497Z,4.72
2022-08-25T13:51:31.268Z,4.78
2022-08-25T13:52:33.476Z,4.50
2022-08-25T13:53:35.227Z,4.70
2022-08-25T13:54:41.943Z,4.80
2022-08-25T13:55:57.215Z,4.82
2022-08-25T13:57:16.889Z,5.28
2022-08-25T13:58:39.033Z,4.90
2022-08-25T13:59:51.803Z,4.55
2022-08-25T14:01:23.086Z,4.00
2022-08-25T14:02:54.189Z,4.75
2022-08-25T14:05:17.629Z,4.47
2022-08-25T14:06:25.203Z,4.82
2022-08-25T14:07:33.637Z,4.30
2022-08-25T14:08:44.979Z,4.50
2022-08-25T14:09:52.355Z,4.95
2022-08-25T14:11:08.710Z,4.97
2022-08-25T14:12:44.772Z,5.97
2022-08-25T14:13:46.892Z,4.90
2022-08-25T14:15:10.924Z,4.40
2022-08-25T14:16:22.159Z,5.80
2022-08-25T14:17:39.464Z,5.38
2022-08-25T14:18:58.854Z,4.25
2022-08-25T14:20:01.565Z,4.50
2022-08-25T14:21:11.061Z,4.97
2022-08-25T14:22:14.711Z,5.13
2022-08-25T14:23:22.548Z,4.72
2022-08-25T14:24:24.531Z,5.13
2022-08-25T14:25:31.305Z,4.93
2022-08-25T14:26:32.910Z,4.80
2022-08-25T14:27:41.936Z,5.57
2022-08-25T14:28:56.693Z,4.20
2022-08-25T14:29:58.324Z,4.80
2022-08-25T14:31:05.185Z,4.35
2022-08-25T14:32:07.292Z,5.63
2022-08-25T14:33:12.945Z,5.22
2022-08-25T14:34:18.788Z,4.65
2022-08-25T14:35:21.778Z,4.85
2022-08-25T14:36:24.397Z,5.00
2022-08-25T14:37:26.040Z,5.05
2022-08-25T14:38:27.692Z,4.88